createdAt,value
2019-04-21T00:00:37.388Z,10.32
2019-04-21T00:03:16.765Z,11.95
2019-04-21T00:06:01.424Z,11.05
2019-04-21T00:08:41.432Z,11.08
2019-04-21T00:11:04.344Z,11.88
2019-04-21T00:13:25.391Z,11.73
2019-04-21T00:15:48.649Z,10.88
2019-04-21T00:18:42.578Z,12.45
2019-04-21T00:21:13.809Z,12.73
2019-04-21T00:23:51.477Z,12.47
2019-04-21T00:26:24.062Z,13.50
2019-04-21T00:28:59.195Z,12.65
2019-04-21T00:31:24.612Z,12.73
2019-04-21T00:33:39.869Z,12.90
2019-04-21T00:36:13.521Z,12.85
2019-04-21T00:39:07.048Z,13.22
2019-04-21T00:41:29.656Z,12.28
2019-04-21T00:43:55.377Z,13.18
2019-04-21T00:46:26.484Z,13.05
2019-04-21T00:49:00.343Z,11.53
2019-04-21T00:51:43.628Z,13.22
2019-04-21T00:54:13.483Z,11.45
2019-04-21T00:56:46.720Z,12.30
2019-04-21T00:59:13.850Z,12.78
2019-04-21T01:01:38.050Z,12.88
2019-04-21T01:04:09.487Z,12.28
2019-04-21T01:06:42.698Z,12.75
2019-04-21T01:09:07.748Z,12.37
2019-04-21T01:11:44.876Z,13.20
2019-04-21T01:14:12.050Z,13.95
2019-04-21T01:16:45.815Z,12.35
2019-04-21T01:19:13.945Z,13.40
2019-04-21T01:21:24.665Z,12.70
2019-04-21T01:23:55.713Z,13.50
2019-04-21T01:26:32.569Z,12.65
2019-04-21T01:29:14.021Z,13.58
2019-04-21T01:31:42.250Z,13.78
2019-04-21T01:34:14.830Z,13.65
2019-04-21T01:36:45.567Z,13.85
2019-04-21T01:39:22.612Z,13.83
2019-04-21T01:41:52.543Z,14.25
2019-04-21T01:44:24.906Z,13.58
2019-04-21T01:46:48.775Z,13.65
2019-04-21T01:49:18.166Z,13.48
2019-04-21T01:52:08.844Z,14.25
2019-04-21T01:54:52.005Z,13.68
2019-04-21T01:57:17.787Z,12.98
2019-04-21T01:59:48.823Z,15.00
2019-04-21T02:02:26.604Z,14.83
2019-04-21T02:05:06.993Z,14.00
2019-04-21T02:07:27.493Z,14.53
2019-04-21T02:10:03.383Z,13.88
2019-04-21T02:12:29.989Z,13.72
2019-04-21T02:15:08.903Z,14.03
2019-04-21T02:17:29.485Z,14.03
2019-04-21T02:19:55.775Z,14.18
2019-04-21T02:22:54.932Z,15.13
2019-04-21T02:25:11.024Z,15.53
2019-04-21T02:27:39.705Z,15.35
2019-04-21T02:30:12.208Z,15.93
2019-04-21T02:32:47.984Z,15.88
2019-04-21T02:35:24.611Z,15.95
2019-04-21T02:37:53.548Z,15.30
2019-04-21T02:40:25.561Z,14.65
2019-04-21T02:42:56.121Z,15.95
2019-04-21T02:45:23.272Z,15.85
2019-04-21T02:47:53.438Z,15.78
2019-04-21T02:52:50.072Z,16.32
2019-04-21T02:55:25.595Z,16.07
2019-04-21T02:57:59.961Z,16.40
2019-04-21T03:00:33.232Z,15.50
2019-04-21T03:03:36.603Z,15.60
2019-04-21T03:05:58.797Z,15.68
2019-04-21T03:08:42.996Z,15.72
2019-04-21T03:11:09.295Z,16.50
2019-04-21T03:16:20.136Z,15.88
2019-04-21T03:18:39.983Z,17.02
2019-04-21T03:21:07.495Z,15.72
2019-04-21T03:23:54.027Z,16.40
2019-04-21T03:26:27.427Z,17.40
2019-04-21T03:28:37.445Z,16.50
2019-04-21T03:34:18.464Z,15.78
2019-04-21T03:41:31.791Z,17.52
2019-04-21T03:43:44.217Z,17.00
2019-04-21T03:46:20.414Z,16.82
2019-04-21T03:49:04.902Z,16.70
2019-04-21T03:51:21.021Z,16.23
2019-04-21T03:53:48.125Z,16.52
2019-04-21T03:56:27.232Z,16.62
2019-04-21T03:58:59.379Z,16.62
2019-04-21T04:01:23.964Z,17.32
2019-04-21T04:07:11.051Z,16.50
2019-04-21T04:09:52.242Z,16.37
2019-04-21T04:12:20.971Z,16.55
2019-04-21T04:15:08.679Z,17.20
2019-04-21T04:17:16.895Z,25.37
2019-04-21T04:20:00.332Z,18.00
2019-04-21T04:25:03.479Z,20.68
2019-04-21T04:27:52.595Z,18.02
2019-04-21T04:29:59.072Z,21.25
2019-04-21T04:32:32.785Z,19.05
2019-04-21T04:35:03.764Z,18.00
2019-04-21T04:37:32.838Z,17.65
2019-04-21T04:40:27.727Z,17.95
2019-04-21T04:45:40.935Z,18.00
2019-04-21T04:48:11.481Z,17.10
2019-04-21T04:53:32.741Z,17.42
2019-04-21T04:55:46.108Z,16.93
2019-04-21T05:00:42.700Z,17.35
2019-04-21T05:03:19.167Z,17.50
2019-04-21T05:09:03.861Z,18.52
2019-04-21T05:14:03.034Z,18.57
2019-04-21T05:23:48.415Z,17.87
2019-04-21T05:26:14.403Z,16.95
2019-04-21T05:28:44.700Z,18.10
2019-04-21T05:31:42.633Z,17.67
2019-04-21T05:34:12.561Z,18.52
2019-04-21T05:37:02.635Z,17.85
2019-04-21T05:39:33.623Z,16.02
2019-04-21T05:41:54.181Z,17.10
2019-04-21T05:44:56.748Z,16.02
2019-04-21T05:47:20.184Z,17.37
2019-04-21T05:49:52.560Z,16.50
2019-04-21T05:52:21.316Z,15.95
2019-04-21T05:54:57.389Z,17.32
2019-04-21T05:57:24.806Z,16.73
2019-04-21T05:59:53.199Z,16.93
2019-04-21T06:02:29.032Z,17.50
2019-04-21T06:05:24.502Z,24.52
2019-04-21T06:07:28.862Z,17.05
2019-04-21T06:09:59.764Z,16.27
2019-04-21T06:12:38.219Z,16.62
2019-04-21T06:15:01.013Z,20.05
2019-04-21T06:17:35.171Z,19.70
2019-04-21T06:20:07.835Z,15.95
2019-04-21T06:22:33.038Z,15.60
2019-04-21T06:25:37.841Z,15.83
2019-04-21T06:27:42.353Z,16.15
2019-04-21T06:30:03.304Z,15.60
2019-04-21T06:32:47.133Z,15.78
2019-04-21T06:35:45.492Z,15.72
2019-04-21T06:38:01.533Z,14.95
2019-04-21T06:40:38.950Z,15.48
2019-04-21T06:43:10.961Z,13.93
2019-04-21T06:45:34.579Z,15.18
2019-04-21T06:48:04.719Z,14.38
2019-04-21T06:50:39.729Z,13.85
2019-04-21T06:53:07.133Z,14.75
2019-04-21T06:55:35.280Z,13.90
2019-04-21T06:58:08.283Z,13.70
2019-04-21T07:00:35.899Z,14.07
2019-04-21T07:03:16.006Z,13.75
2019-04-21T07:05:44.095Z,14.15
2019-04-21T07:08:21.910Z,14.53
2019-04-21T07:10:41.578Z,14.53
2019-04-21T07:13:07.716Z,13.45
2019-04-21T07:15:43.627Z,13.80
2019-04-21T07:18:17.979Z,13.90
2019-04-21T07:20:49.046Z,13.13
2019-04-21T07:23:16.328Z,13.70
2019-04-21T07:25:48.336Z,13.68
2019-04-21T07:28:21.988Z,13.68
2019-04-21T07:30:56.632Z,13.75
2019-04-21T07:33:47.143Z,16.75
2019-04-21T07:35:54.008Z,13.83
2019-04-21T07:38:24.396Z,18.05
2019-04-21T07:40:48.480Z,15.83
2019-04-21T07:43:16.638Z,14.28
2019-04-21T07:45:49.744Z,13.70
2019-04-21T07:48:26.294Z,14.73
2019-04-21T07:51:14.028Z,15.65
2019-04-21T07:53:55.710Z,13.38
2019-04-21T07:56:07.503Z,14.03
2019-04-21T07:59:00.155Z,14.53
2019-04-21T08:01:24.375Z,13.55
2019-04-21T08:03:57.000Z,13.72
2019-04-21T08:06:28.224Z,13.88
2019-04-21T08:08:55.992Z,14.93
2019-04-21T08:11:19.419Z,14.47
2019-04-21T08:13:57.919Z,13.88
2019-04-21T08:16:35.295Z,14.15
2019-04-21T08:19:05.361Z,14.45
2019-04-21T08:21:33.936Z,14.53
2019-04-21T08:24:04.738Z,13.93
2019-04-21T08:26:39.849Z,14.43
2019-04-21T08:29:14.570Z,13.60
2019-04-21T08:31:42.640Z,14.43
2019-04-21T08:34:09.645Z,14.28
2019-04-21T08:36:35.606Z,13.72
2019-04-21T08:39:08.709Z,14.28
2019-04-21T08:41:40.904Z,13.78
2019-04-21T08:44:16.836Z,13.53
2019-04-21T08:46:46.051Z,14.45
2019-04-21T08:49:15.022Z,14.40
2019-04-21T08:51:50.441Z,13.85
2019-04-21T08:54:18.378Z,14.95
2019-04-21T08:57:18.026Z,14.35
2019-04-21T09:00:03.453Z,13.50
2019-04-21T09:02:35.010Z,13.03
2019-04-21T09:04:59.252Z,12.70
2019-04-21T09:10:02.923Z,13.98
2019-04-21T09:12:34.689Z,14.47
2019-04-21T09:15:08.322Z,13.28
2019-04-21T09:17:31.539Z,13.13
2019-04-21T09:20:13.800Z,13.65
2019-04-21T09:22:37.827Z,12.55
2019-04-21T09:25:09.155Z,12.33
2019-04-21T09:27:36.623Z,12.45
2019-04-21T09:29:55.699Z,13.05
2019-04-21T09:32:26.847Z,11.78
2019-04-21T09:34:53.662Z,12.58
2019-04-21T09:37:32.771Z,12.58
2019-04-21T09:39:57.337Z,12.20
2019-04-21T09:42:32.313Z,11.45
2019-04-21T09:45:00.590Z,11.50
2019-04-21T09:47:35.095Z,13.20
2019-04-21T09:49:58.574Z,12.40
2019-04-21T09:52:37.536Z,12.37
2019-04-21T09:55:07.031Z,13.55
2019-04-21T09:57:40.712Z,12.13
2019-04-21T10:00:11.314Z,11.55
2019-04-21T10:02:38.145Z,11.68
2019-04-21T10:05:03.185Z,12.28
2019-04-21T10:07:37.050Z,12.50
2019-04-21T10:10:03.850Z,11.85
2019-04-21T10:12:33.281Z,11.15
2019-04-21T10:15:02.508Z,11.48
2019-04-21T10:17:35.337Z,11.18
2019-04-21T10:20:05.348Z,11.28
2019-04-21T10:22:35.089Z,11.70
2019-04-21T10:25:04.971Z,41.98
2019-04-21T10:27:34.879Z,10.88
2019-04-21T10:30:05.726Z,10.25
2019-04-21T10:32:36.334Z,12.50
2019-04-21T10:35:07.440Z,10.90
2019-04-21T10:37:47.396Z,9.73
2019-04-21T10:40:09.712Z,10.48
2019-04-21T10:42:40.308Z,10.25
2019-04-21T10:45:10.825Z,9.18
2019-04-21T10:47:41.027Z,9.08
2019-04-21T10:50:10.947Z,16.10
2019-04-21T10:53:00.836Z,9.90
2019-04-21T10:55:44.649Z,10.60
2019-04-21T10:58:18.198Z,8.90
2019-04-21T11:00:48.402Z,9.70
2019-04-21T11:03:31.410Z,9.93
2019-04-21T11:06:01.112Z,10.18
2019-04-21T11:08:35.657Z,9.08
2019-04-21T11:11:01.732Z,42.30
2019-04-21T11:13:31.017Z,10.88
2019-04-21T11:16:01.368Z,10.18
2019-04-21T11:18:31.693Z,9.98
2019-04-21T11:21:01.277Z,9.25
2019-04-21T11:23:37.514Z,9.93
2019-04-21T11:26:06.552Z,9.55
2019-04-21T11:28:36.668Z,9.83
2019-04-21T11:31:07.034Z,9.90
2019-04-21T11:33:35.878Z,11.38
2019-04-21T11:36:04.750Z,9.65
2019-04-21T11:38:58.211Z,8.65
2019-04-21T11:41:10.169Z,10.28
2019-04-21T11:43:39.219Z,9.58
2019-04-21T11:46:08.570Z,8.98
2019-04-21T11:48:37.502Z,9.35
2019-04-21T11:51:06.846Z,9.28
2019-04-21T11:53:36.888Z,9.53
2019-04-21T11:56:06.944Z,9.48
2019-04-21T11:58:36.058Z,9.65
2019-04-21T12:01:05.672Z,10.65
2019-04-21T12:03:35.739Z,10.90
2019-04-21T12:06:05.788Z,10.63
2019-04-21T12:08:40.422Z,10.15
2019-04-21T12:11:05.421Z,9.30
2019-04-21T12:13:34.423Z,9.65
2019-04-21T12:16:03.381Z,8.80
2019-04-21T12:18:33.957Z,8.35
2019-04-21T12:21:03.300Z,8.38
2019-04-21T12:23:32.519Z,8.80
2019-04-21T12:26:01.439Z,8.78
2019-04-21T12:28:30.523Z,8.28
2019-04-21T12:31:00.074Z,7.37
2019-04-21T12:33:54.000Z,7.70
2019-04-21T12:36:24.176Z,8.93
2019-04-21T12:38:56.235Z,8.48
2019-04-21T12:41:24.605Z,8.30
2019-04-21T12:43:54.855Z,8.23
2019-04-21T12:46:23.794Z,8.23
2019-04-21T12:48:53.736Z,6.92
2019-04-21T12:51:23.853Z,7.00
2019-04-21T12:53:53.912Z,7.08
2019-04-21T12:56:23.404Z,7.78
2019-04-21T12:58:53.297Z,8.78
2019-04-21T13:01:23.150Z,43.92
2019-04-21T13:03:52.182Z,10.20
2019-04-21T13:06:21.417Z,34.35
2019-04-21T13:08:57.890Z,13.13
2019-04-21T13:11:21.428Z,9.08
2019-04-21T13:13:50.291Z,8.08
2019-04-21T13:16:19.350Z,8.03
2019-04-21T13:18:49.231Z,7.90
2019-04-21T13:21:18.267Z,7.35
2019-04-21T13:23:47.293Z,6.55
2019-04-21T13:26:27.172Z,6.60
2019-04-21T13:28:47.921Z,7.00
2019-04-21T13:31:18.079Z,7.22
2019-04-21T13:33:48.028Z,7.10
2019-04-21T13:36:18.155Z,6.30
2019-04-21T13:39:39.587Z,6.90
2019-04-21T13:41:50.510Z,6.83
2019-04-21T13:44:13.253Z,5.80
2019-04-21T13:46:42.972Z,5.75
2019-04-21T13:49:11.898Z,5.92
2019-04-21T13:51:41.599Z,6.45
2019-04-21T13:54:11.519Z,6.90
2019-04-21T13:56:40.621Z,6.03
2019-04-21T13:59:10.560Z,5.95
2019-04-21T14:01:39.678Z,5.83
2019-04-21T14:04:09.527Z,6.25
2019-04-21T14:06:38.511Z,5.67
2019-04-21T14:09:09.752Z,5.58
2019-04-21T14:11:38.483Z,5.83
2019-04-21T14:14:08.285Z,5.33
2019-04-21T14:16:38.100Z,5.37
2019-04-21T14:19:07.603Z,5.97
2019-04-21T14:21:37.115Z,5.28
2019-04-21T14:24:06.674Z,5.65
2019-04-21T14:26:36.256Z,6.08
2019-04-21T14:29:07.946Z,5.87
2019-04-21T14:31:38.186Z,4.90
2019-04-21T14:34:08.028Z,5.85
2019-04-21T14:36:37.089Z,5.22
2019-04-21T14:39:10.366Z,5.10
2019-04-21T14:41:40.312Z,5.33
2019-04-21T14:44:09.305Z,5.37
2019-04-21T14:47:03.120Z,5.35
2019-04-21T14:49:44.971Z,5.90
2019-04-21T14:52:17.223Z,4.80
2019-04-21T14:54:50.903Z,4.92
2019-04-21T14:57:21.116Z,4.97
2019-04-21T14:59:51.104Z,4.75
2019-04-21T15:02:20.291Z,4.33
2019-04-21T15:04:49.367Z,4.55
2019-04-21T15:07:19.253Z,5.08
2019-04-21T15:10:01.223Z,4.70
2019-04-21T15:12:18.519Z,4.90
2019-04-21T15:14:47.675Z,4.85
2019-04-21T15:17:19.525Z,5.17
2019-04-21T15:19:50.910Z,5.10
2019-04-21T15:22:18.535Z,6.10
2019-04-21T15:24:48.146Z,7.37
2019-04-21T15:27:16.943Z,6.40
2019-04-21T15:29:46.846Z,6.33
2019-04-21T15:32:16.888Z,6.47
2019-04-21T15:34:46.038Z,6.53
2019-04-21T15:37:15.793Z,51.37
2019-04-21T15:39:44.797Z,16.70
2019-04-21T15:42:14.575Z,19.50
2019-04-21T15:44:44.695Z,7.97
2019-04-21T15:47:13.898Z,6.00
2019-04-21T15:50:03.636Z,8.18
2019-04-21T15:52:29.965Z,5.50
2019-04-21T15:55:06.272Z,4.72
2019-04-21T15:57:54.556Z,5.12
2019-04-21T16:00:30.834Z,5.65
2019-04-21T16:03:00.437Z,6.05
2019-04-21T16:05:30.755Z,7.90
2019-04-21T16:08:00.318Z,50.55
2019-04-21T16:10:40.873Z,32.25
2019-04-21T16:13:01.194Z,21.68
2019-04-21T16:15:30.380Z,7.58
2019-04-21T16:17:59.390Z,4.70
2019-04-21T16:20:28.325Z,5.03
2019-04-21T16:22:57.161Z,4.35
2019-04-21T16:25:26.742Z,4.85
2019-04-21T16:27:55.754Z,4.80
2019-04-21T16:30:25.789Z,4.33
2019-04-21T16:32:54.767Z,4.47
2019-04-21T16:35:25.226Z,4.70
2019-04-21T16:37:57.107Z,4.37
2019-04-21T16:40:25.447Z,4.55
2019-04-21T16:42:54.293Z,29.48
2019-04-21T16:45:23.166Z,8.98
2019-04-21T16:47:53.747Z,7.90
2019-04-21T16:50:23.598Z,4.95
2019-04-21T16:52:56.424Z,20.43
2019-04-21T16:55:30.854Z,5.95
2019-04-21T16:58:23.093Z,6.40
2019-04-21T17:01:00.918Z,5.83
2019-04-21T17:03:24.321Z,4.30
2019-04-21T17:05:54.214Z,4.08
2019-04-21T17:08:24.005Z,4.62
2019-04-21T17:11:05.608Z,4.75
2019-04-21T17:13:24.556Z,4.60
2019-04-21T17:16:16.434Z,4.97
2019-04-21T17:18:39.532Z,4.58
2019-04-21T17:21:00.618Z,5.22
2019-04-21T17:23:25.327Z,4.62
2019-04-21T17:25:55.205Z,6.28
2019-04-21T17:28:23.971Z,4.65
2019-04-21T17:30:52.804Z,5.53
2019-04-21T17:33:27.888Z,5.92
2019-04-21T17:35:56.640Z,5.67
2019-04-21T17:38:26.011Z,8.50
2019-04-21T17:40:57.078Z,9.73
2019-04-21T17:43:25.756Z,7.65
2019-04-21T17:45:55.204Z,5.30
2019-04-21T17:48:25.148Z,5.05
2019-04-21T17:51:03.330Z,5.33
2019-04-21T17:53:48.229Z,4.65
2019-04-21T17:56:48.085Z,5.60
2019-04-21T17:59:02.925Z,5.30
2019-04-21T18:01:39.312Z,5.85
2019-04-21T18:04:12.313Z,5.50
2019-04-21T18:06:56.483Z,8.78
2019-04-21T18:09:36.472Z,19.80
2019-04-21T18:12:03.115Z,7.47
2019-04-21T18:14:13.732Z,7.62
2019-04-21T18:16:45.384Z,6.70
2019-04-21T18:19:13.082Z,6.50
2019-04-21T18:21:59.825Z,7.45
2019-04-21T18:24:36.676Z,7.42
2019-04-21T18:27:00.165Z,7.53
2019-04-21T18:29:27.678Z,7.00
2019-04-21T18:31:57.991Z,7.08
2019-04-21T18:34:47.777Z,6.45
2019-04-21T18:37:39.515Z,8.13
2019-04-21T18:40:12.270Z,11.83
2019-04-21T18:42:57.485Z,7.87
2019-04-21T18:45:47.970Z,12.43
2019-04-21T18:48:28.658Z,9.58
2019-04-21T18:51:15.239Z,8.55
2019-04-21T18:54:02.177Z,9.73
2019-04-21T18:56:18.881Z,11.22
2019-04-21T18:58:46.689Z,10.98
2019-04-21T19:01:22.476Z,10.68
2019-04-21T19:03:50.040Z,11.63
2019-04-21T19:06:26.716Z,11.95
2019-04-21T19:09:10.888Z,11.57
2019-04-21T19:11:33.720Z,13.83
2019-04-21T19:14:26.060Z,13.55
2019-04-21T19:16:53.933Z,13.25
2019-04-21T19:21:52.508Z,13.15
2019-04-21T19:24:22.884Z,14.50
2019-04-21T19:29:33.618Z,16.37
2019-04-21T19:31:54.956Z,20.68
2019-04-21T19:34:12.903Z,20.65
2019-04-21T19:36:37.125Z,22.30
2019-04-21T19:39:15.194Z,23.83
2019-04-21T19:41:52.223Z,29.15
2019-04-21T19:44:29.371Z,22.42
2019-04-21T19:46:58.708Z,21.52
2019-04-21T19:49:33.534Z,20.77
2019-04-21T19:51:52.349Z,19.73
2019-04-21T19:54:22.391Z,19.80
2019-04-21T19:56:44.813Z,21.02
2019-04-21T19:59:23.848Z,20.48
2019-04-21T20:01:46.787Z,22.90
2019-04-21T20:04:16.695Z,22.52
2019-04-21T20:06:58.432Z,21.85
2019-04-21T20:09:32.525Z,23.77
2019-04-21T20:11:59.145Z,24.35
2019-04-21T20:14:49.284Z,25.88
2019-04-21T20:17:01.948Z,24.98
2019-04-21T20:19:19.662Z,24.65
2019-04-21T20:21:49.198Z,26.42
2019-04-21T20:24:24.343Z,26.02
2019-04-21T20:27:01.268Z,28.07
2019-04-21T20:29:37.685Z,27.42
2019-04-21T20:32:08.375Z,27.87
2019-04-21T20:34:40.018Z,25.82
2019-04-21T20:37:09.344Z,28.17
2019-04-21T20:39:25.429Z,26.82
2019-04-21T20:42:04.151Z,25.62
2019-04-21T20:44:40.250Z,25.27
2019-04-21T20:47:03.792Z,27.27
2019-04-21T20:49:34.133Z,27.10
2019-04-21T20:52:17.517Z,25.48
2019-04-21T20:54:40.805Z,25.23
2019-04-21T20:57:13.391Z,28.73
2019-04-21T20:59:37.518Z,30.95
2019-04-21T21:02:11.997Z,28.40
2019-04-21T21:04:32.687Z,27.93
2019-04-21T21:07:30.556Z,28.45
2019-04-21T21:09:46.196Z,28.60
2019-04-21T21:12:40.733Z,28.73
2019-04-21T21:14:42.191Z,28.55
2019-04-21T21:17:33.979Z,29.60
2019-04-21T21:19:55.790Z,28.55
2019-04-21T21:22:09.686Z,30.05
2019-04-21T21:24:49.687Z,29.85
2019-04-21T21:27:14.261Z,28.47
2019-04-21T21:29:49.877Z,29.10
2019-04-21T21:32:24.162Z,30.70
2019-04-21T21:34:49.730Z,29.48
2019-04-21T21:37:29.296Z,30.88
2019-04-21T21:40:01.119Z,28.87
2019-04-21T21:42:07.326Z,30.35
2019-04-21T21:44:35.748Z,28.98
2019-04-21T21:47:23.072Z,28.57
2019-04-21T21:49:52.869Z,27.70
2019-04-21T21:52:16.889Z,29.37
2019-04-21T21:54:37.932Z,28.55
2019-04-21T21:57:06.675Z,29.10
2019-04-21T21:59:38.222Z,29.10
2019-04-21T22:02:09.550Z,33.35
2019-04-21T22:04:37.899Z,34.70
2019-04-21T22:07:13.579Z,35.05
2019-04-21T22:09:37.319Z,35.78
2019-04-21T22:12:07.222Z,38.65
2019-04-21T22:14:41.592Z,35.78
2019-04-21T22:17:21.769Z,112.40
2019-04-21T22:20:05.280Z,46.35
2019-04-21T22:22:22.848Z,33.88
2019-04-21T22:24:52.419Z,33.33
2019-04-21T22:27:09.504Z,33.67
2019-04-21T22:29:45.425Z,32.90
2019-04-21T22:32:14.888Z,32.25
2019-04-21T22:34:49.819Z,30.48
2019-04-21T22:37:28.941Z,32.08
2019-04-21T22:39:54.342Z,33.30
2019-04-21T22:42:18.958Z,33.65
2019-04-21T22:44:42.782Z,34.60
2019-04-21T22:47:17.761Z,35.80
2019-04-21T22:49:42.203Z,35.83
2019-04-21T22:52:16.700Z,35.58
2019-04-21T22:54:44.570Z,35.92
2019-04-21T22:57:17.575Z,33.73
2019-04-21T22:59:45.380Z,32.93
2019-04-21T23:02:22.617Z,34.25
2019-04-21T23:04:50.874Z,32.80
2019-04-21T23:07:20.755Z,33.60
2019-04-21T23:09:49.418Z,32.90
2019-04-21T23:12:20.421Z,31.12
2019-04-21T23:14:57.411Z,30.72
2019-04-21T23:17:42.254Z,29.92
2019-04-21T23:20:08.841Z,28.98
2019-04-21T23:22:46.799Z,31.07
2019-04-21T23:25:09.126Z,29.52
2019-04-21T23:27:40.437Z,28.15
2019-04-21T23:30:20.255Z,29.57
2019-04-21T23:32:36.243Z,28.73
2019-04-21T23:34:56.103Z,26.60
2019-04-21T23:37:27.184Z,26.87
2019-04-21T23:40:01.085Z,27.65
2019-04-21T23:42:32.801Z,26.82
2019-04-21T23:44:58.538Z,27.13
2019-04-21T23:47:39.611Z,25.85
2019-04-21T23:50:07.401Z,26.00
2019-04-21T23:52:29.844Z,27.35
2019-04-21T23:54:59.148Z,26.23
2019-04-21T23:57:34.364Z,26.02
2019-04-21T23:59:59.650Z,25.27
